Latest Coastal Weather Observations for Cape Jaffa

IDS60701

Issued at 6:01 am CST Friday 23 June 2017 (issued every 10 minutes, with the page automatically refreshed every 10 minutes)

About coastal observations | Map of coastal stations | Coastal observations for SA | Marine services | Other Formats
Station Details ID: 026095 Name: THE LIMESTONE Lat: -36.97 Lon: 139.72 Height: 17.0 m
Data from the previous 72 hours. | See also: Recent months at Cape Jaffa
Date/Time
CST
Temp
°C
Wind Pressure Rain since
9am
mm
Weather Cloud Vis
km
Sea
Height
m
Swell
Dir  Spd
kts
Gust
kts
hPa Trend Height
m
Period
s
Dir
23/06:00am 7.1 NE 2 3 1016.6 - 0.0 - - - - - - -
23/05:30am 8.8 N 2 3 1016.6 - 0.0 - - - - - - -
23/05:00am 8.1 NNE 3 5 1016.6 - 0.0 - - - - - - -
23/04:30am 11.0 N 7 8 1016.8 - 0.0 - - - - - - -
23/04:00am 11.2 N 8 10 1017.1 - 0.0 - - - - - - -
23/03:30am 11.1 N 8 10 1017.3 - 0.0 - - - - - - -
23/03:00am 10.9 N 8 11 1017.7 - 0.0 - - - - - - -
23/02:30am 10.7 N 8 10 1017.9 - 0.0 - - - - - - -
23/02:00am 11.3 N 10 13 1018.0 - 0.0 - - - - - - -
23/01:30am 11.4 N 10 14 1018.2 - 0.0 - - - - - - -
23/01:00am 10.9 NNE 8 10 1018.7 - 0.0 - - - - - - -
23/12:30am 10.9 N 9 13 1019.1 - 0.0 - - - - - - -
23/12:00am 11.4 N 10 13 1019.4 - 0.0 - - - - - - -
 
Date/Time
CST
Temp
°C
Wind Pressure Rain since
9am
mm
Weather Cloud Vis
km
Sea
Height
m
Swell
Dir  Spd
kts
Gust
kts
hPa Trend Height
m
Period
s
Dir
22/11:30pm 11.4 N 10 14 1019.8 - 0.0 - - - - - - -
22/11:00pm 11.3 NNE 10 12 1020.0 - 0.0 - - - - - - -
22/10:30pm 10.0 NE 5 8 1020.4 - 0.0 - - - - - - -
22/10:00pm 10.2 NNE 6 7 1020.9 - 0.0 - - - - - - -
22/09:30pm 9.0 NE 8 8 1021.0 - 0.0 - - - - - - -
22/09:00pm 9.1 ENE 7 7 1021.2 - 0.0 - - - - - - -
22/08:30pm 9.6 ENE 6 6 1021.4 - 0.0 - - - - - - -
22/08:00pm 9.8 ENE 7 7 1021.3 - 0.0 - - - - - - -
22/07:30pm 9.7 NE 7 8 1021.4 - 0.0 - - - - - - -
22/07:00pm 10.3 NE 7 8 1021.6 - 0.0 - - - - - - -
22/06:30pm 10.9 NE 6 6 1021.7 - 0.0 - - - - - - -
22/06:00pm 11.4 NE 5 5 1021.7 - 0.0 - - - - - - -
22/05:30pm 11.9 NNE 5 5 1021.7 - 0.0 - - - - - - -
22/05:00pm 12.1 NNE 4 5 1021.8 - 0.0 - - - - - - -
22/04:30pm 12.6 NNE 4 4 1021.8 - 0.0 - - - - - - -
22/04:00pm 13.2 N 4 6 1021.9 - 0.0 - - - - - - -
22/03:30pm 13.4 N 5 7 1022.0 - 0.0 - - - - - - -
22/03:00pm 14.0 N 9 11 1022.2 - 0.0 - - - - - - -
22/02:30pm 14.5 N 10 12 1022.5 - 0.0 - - - - - - -
22/02:00pm 13.9 N 10 12 1022.9 - 0.0 - - - - - - -
22/01:30pm 14.1 N 12 15 1023.4 - 0.0 - - - - - - -
22/01:00pm 14.2 N 13 17 1023.8 - 0.0 - - - - - - -
22/12:30pm 14.4 N 12 14 1024.4 - 0.0 - - - - - - -
22/12:00pm 14.4 N 11 13 1025.1 - 0.0 - - - - - - -
22/11:30am 14.0 N 10 12 1025.7 - 0.0 - - - - - - -
22/11:00am 14.7 N 11 13 1026.2 - 0.0 - - - - - - -
22/10:30am 14.1 N 10 12 1026.5 - 0.0 - - - - - - -
22/10:00am 13.7 N 9 11 1026.6 - 0.0 - - - - - - -
22/09:30am 13.1 N 8 10 1026.6 - 0.0 - - - - - - -
22/09:00am 10.5 NNE 6 7 1026.5 - 0.6 - - - - - - -
22/08:30am 8.3 ENE 6 7 1026.6 - 0.6 - - - - - - -
22/08:00am 7.1 ENE 7 7 1026.5 - 0.6 - - - - - - -
22/07:30am 7.4 ENE 7 8 1025.9 - 0.6 - - - - - - -
22/07:00am 7.7 NE 9 10 1025.7 - 0.6 - - - - - - -
22/06:30am 8.4 NE 8 8 1026.0 - 0.6 - - - - - - -
22/06:00am 8.4 ENE 5 5 1025.9 - 0.6 - - - - - - -
22/05:30am 8.8 ENE 4 5 1025.9 - 0.6 - - - - - - -
22/05:00am 8.8 E 5 7 1025.7 - 0.6 - - - - - - -
22/04:30am 8.9 E 4 6 1026.0 - 0.6 - - - - - - -
22/04:00am 8.9 E 6 7 1025.9 - 0.6 - - - - - - -
22/03:30am 9.0 E 6 7 1026.1 - 0.6 - - - - - - -
22/03:00am 9.0 E 6 7 1026.4 - 0.6 - - - - - - -
22/02:30am 9.0 ESE 5 6 1026.6 - 0.6 - - - - - - -
22/02:00am 9.0 ESE 6 6 1026.6 - 0.6 - - - - - - -
22/01:30am 9.1 ESE 5 6 1026.6 - 0.6 - - - - - - -
22/01:00am 9.0 ESE 5 6 1026.8 - 0.6 - - - - - - -
22/12:30am 8.9 ESE 5 6 1027.0 - 0.6 - - - - - - -
22/12:00am 9.0 ESE 5 6 1027.1 - 0.6 - - - - - - -
 
Date/Time
CST
Temp
°C
Wind Pressure Rain since
9am
mm
Weather Cloud Vis
km
Sea
Height
m
Swell
Dir  Spd
kts
Gust
kts
hPa Trend Height
m
Period
s
Dir
21/11:30pm 8.9 ESE 5 6 1027.4 - 0.6 - - - - - - -
21/11:00pm 8.9 ESE 5 7 1027.5 - 0.6 - - - - - - -
21/10:30pm 9.0 ESE 5 7 1027.6 - 0.6 - - - - - - -
21/10:00pm 9.1 SE 5 6 1027.9 - 0.6 - - - - - - -
21/09:30pm 9.3 ESE 4 6 1028.0 - 0.6 - - - - - - -
21/09:00pm 9.2 ESE 4 6 1028.0 - 0.6 - - - - - - -
21/08:30pm 9.4 SSE 5 7 1028.2 - 0.6 - - - - - - -
21/08:00pm 9.9 SE 6 7 1028.2 - 0.6 - - - - - - -
21/07:30pm 10.6 SE 7 9 1028.3 - 0.6 - - - - - - -
21/07:00pm 10.9 SSE 7 9 1028.2 - 0.6 - - - - - - -
21/06:30pm 11.3 SSE 5 7 1027.9 - 0.6 - - - - - - -
21/06:00pm 11.9 SE 5 6 1027.7 - 0.6 - - - - - - -
21/05:30pm 12.3 SE 4 6 1027.6 - 0.6 - - - - - - -
21/05:00pm 12.7 SE 3 4 1027.4 - 0.6 - - - - - - -
21/04:30pm 13.1 SE 3 4 1027.4 - 0.6 - - - - - - -
21/04:00pm 13.9 S 3 4 1027.4 - 0.6 - - - - - - -
21/03:30pm 14.6 ESE 2 4 1027.3 - 0.0 - - - - - - -
21/03:00pm 15.1 ENE 4 6 1027.2 - 0.0 - - - - - - -
21/02:30pm 15.6 NE 5 8 1027.2 - 0.0 - - - - - - -
21/02:00pm 15.3 E 4 7 1027.3 - 0.0 - - - - - - -
21/01:30pm 14.9 E 5 7 1027.7 - 0.0 - - - - - - -
21/01:00pm 15.1 ESE 6 8 1027.8 - 0.0 - - - - - - -
21/12:30pm 14.1 ESE 6 9 1028.2 - 0.0 - - - - - - -
21/12:00pm 14.8 E 8 11 1028.3 - 0.0 - - - - - - -
21/11:30am 14.1 E 6 9 1028.7 - 0.0 - - - - - - -
21/11:00am 13.7 ESE 6 9 1029.2 - 0.0 - - - - - - -
21/10:30am 13.3 ESE 4 6 1029.3 - 0.0 - - - - - - -
21/10:00am 12.6 E 7 10 1029.2 - 0.0 - - - - - - -
21/09:30am 11.4 E 5 7 1029.1 - 0.0 - - - - - - -
21/09:00am 11.1 E 4 5 1029.0 - 0.6 - - - - - - -
21/08:30am 10.8 E 4 5 1028.6 - 0.6 - - - - - - -
21/08:00am 10.0 E 4 5 1028.4 - 0.6 - - - - - - -
21/07:30am 9.6 ESE 3 4 1028.3 - 0.6 - - - - - - -
21/07:00am 9.6 E 4 5 1028.0 - 0.6 - - - - - - -
21/06:30am 10.1 ESE 4 5 1027.8 - 0.6 - - - - - - -
21/06:00am 10.6 E 5 7 1027.6 - 0.6 Recent precip. - - - - - -
21/05:30am 11.2 ESE 5 7 1027.3 - 0.6 - - - - - - -
21/05:00am 11.4 SSE 4 7 1027.1 - 0.2 - - - - - - -
21/04:30am 11.2 ESE 3 5 1026.7 - 0.2 - - - - - - -
21/04:00am 12.0 SE 5 7 1026.5 - 0.2 - - - - - - -
21/03:30am 12.4 SSE 6 9 1026.5 - 0.0 - - - - - - -
21/03:00am 11.3 SE 4 5 1026.3 - 0.0 - - - - - - -
21/02:30am 11.2 SSE 4 5 1026.4 - 0.0 - - - - - - -
21/02:00am 11.8 SSE 5 7 1026.0 - 0.0 - - - - - - -
21/01:30am 11.6 S 6 7 1025.9 - 0.0 - - - - - - -
21/01:00am 11.6 W 2 2 1025.8 - 0.0 - - - - - - -
21/12:30am 12.4 W 3 4 1025.8 - 0.0 - - - - - - -
21/12:00am 12.6 WSW 3 4 1025.8 - 0.0 - - - - - - -
 
Date/Time
CST
Temp
°C
Wind Pressure Rain since
9am
mm
Weather Cloud Vis
km
Sea
Height
m
Swell
Dir  Spd
kts
Gust
kts
hPa Trend Height
m
Period
s
Dir
20/11:30pm 12.9 W 3 4 1025.9 - 0.0 - - - - - - -
20/11:00pm 13.0 WNW 3 3 1026.0 - 0.0 - - - - - - -
20/10:30pm 13.2 WNW 3 4 1025.8 - 0.0 - - - - - - -
20/10:00pm 13.7 WNW 4 5 1025.8 - 0.0 - - - - - - -
20/09:30pm 13.6 WNW 4 5 1025.7 - 0.0 - - - - - - -
20/09:00pm 13.7 NW 6 7 1025.6 - 0.0 - - - - - - -
20/08:30pm 14.0 NW 7 9 1025.6 - 0.0 - - - - - - -
20/08:00pm 14.1 NW 8 11 1025.5 - 0.0 - - - - - - -
20/07:30pm 14.5 NW 8 11 1025.4 - 0.0 - - - - - - -
20/07:00pm 14.3 NW 7 10 1025.2 - 0.0 - - - - - - -
20/06:30pm 13.2 NNW 7 8 1025.1 - 0.0 - - - - - - -
20/06:00pm 13.6 NNW 8 10 1025.0 - 0.0 - - - - - - -
20/05:30pm 13.4 NW 6 9 1024.9 - 0.0 - - - - - - -
20/05:00pm 13.4 NNW 7 9 1024.9 - 0.0 - - - - - - -
20/04:30pm 14.1 NNW 8 10 1024.8 - 0.0 - - - - - - -
20/04:00pm 15.0 NW 9 12 1024.9 - 0.0 - - - - - - -
20/03:30pm 15.3 NW 11 16 1024.9 - 0.0 - - - - - - -
20/03:00pm 15.5 NNW 11 15 1024.8 - 0.0 - - - - - - -
20/02:30pm 15.5 NNW 11 15 1024.8 - 0.0 - - - - - - -
20/02:00pm 15.4 NNW 11 14 1024.8 - 0.0 - - - - - - -
20/01:30pm 15.6 NNW 12 16 1024.8 - 0.0 - - - - - - -
20/01:00pm 15.0 NNW 13 17 1024.8 - 0.0 - - - - - - -
20/12:30pm 15.0 N 14 17 1024.9 - 0.0 - - - - - - -
20/12:00pm 14.8 N 14 17 1025.4 - 0.0 - - - - - - -
20/11:30am 14.3 N 13 17 1025.8 - 0.0 - - - - - - -
20/11:00am 14.5 N 13 18 1026.1 - 0.0 - - - - - - -
20/10:30am 14.1 N 13 16 1026.1 - 0.0 - - - - - - -
20/10:00am 13.9 N 14 17 1026.0 - 0.0 - - - - - - -
20/09:30am 13.9 N 12 15 1026.0 - 0.0 - - - - - - -
20/09:00am 13.7 N 11 14 1026.0 - 0.2 - - - - - - -
20/08:30am 13.3 N 11 13 1025.9 - 0.2 - - - - - - -
20/08:00am 12.7 N 10 13 1025.9 - 0.2 - - - - - - -
20/07:30am 12.4 N 11 15 1025.8 - 0.2 - - - - - - -
20/07:00am 12.4 N 12 15 1025.7 - 0.2 - - - - - - -
20/06:30am 12.4 N 12 15 1025.6 - 0.2 - - - - - - -

Other Formats:

Comma delimited format used in spreadsheet applications
http://www.bom.gov.au/fwo/IDS60701/IDS60701.94813.axf

JavaScript Object Notation format (JSON) in row-major order
http://www.bom.gov.au/fwo/IDS60701/IDS60701.94813.json